createdAt,value
2023-05-08T00:01:21.012Z,100150.47
2023-05-08T00:03:47.964Z,100152.84
2023-05-08T00:06:16.035Z,100157.31
2023-05-08T00:08:43.266Z,100156.13
2023-05-08T00:11:11.061Z,100159.94
2023-05-08T00:13:37.618Z,100158.75
2023-05-08T00:16:04.462Z,100161.63
2023-05-08T00:18:31.016Z,100156.56
2023-05-08T00:20:57.642Z,100161.63
2023-05-08T00:23:25.560Z,100145.91
2023-05-08T00:25:52.094Z,100157.78
2023-05-08T00:28:18.628Z,100155.56
2023-05-08T00:30:45.187Z,100152.09
2023-05-08T00:33:11.781Z,100146.59
2023-05-08T00:35:38.702Z,100154.59
2023-05-08T00:38:05.330Z,100158.03
2023-05-08T00:40:33.276Z,100160.47
2023-05-08T00:42:59.804Z,100162.09
2023-05-08T00:45:34.483Z,100158.31
2023-05-08T00:48:01.691Z,100155.56
2023-05-08T00:50:28.966Z,100149.34
2023-05-08T00:52:56.916Z,100157.06
2023-05-08T00:55:24.589Z,100154.59
2023-05-08T00:57:52.562Z,100161.44
2023-05-08T01:00:20.880Z,100161.44
2023-05-08T01:02:47.759Z,100165.44
2023-05-08T01:05:14.427Z,100161.81
2023-05-08T01:07:41.214Z,100161.66
2023-05-08T01:10:09.009Z,100162.94
2023-05-08T01:12:47.572Z,100159.47
2023-05-08T01:15:18.880Z,100155.09
2023-05-08T01:17:57.467Z,100159.34
2023-05-08T01:20:35.353Z,100160.34
2023-05-08T01:23:43.365Z,100159.34
2023-05-08T01:26:49.856Z,100157.59
2023-05-08T01:29:44.155Z,100167.84
2023-05-08T01:32:15.902Z,100166.38
2023-05-08T01:34:49.811Z,100163.50
2023-05-08T01:37:23.774Z,100173.69
2023-05-08T01:40:00.837Z,100169.03
2023-05-08T01:42:35.893Z,100161.22
2023-05-08T01:45:08.997Z,100170.19
2023-05-08T01:47:38.277Z,100172.81
2023-05-08T01:50:09.286Z,100172.22
2023-05-08T01:52:43.589Z,100167.00
2023-05-08T01:55:15.742Z,100179.47
2023-05-08T01:57:46.886Z,100174.34
2023-05-08T02:00:17.544Z,100178.53
2023-05-08T02:02:48.038Z,100180.25
2023-05-08T02:05:15.227Z,100183.13
2023-05-08T02:07:43.945Z,100185.63
2023-05-08T02:10:12.600Z,100187.66
2023-05-08T02:12:41.885Z,100188.53
2023-05-08T02:15:09.650Z,100192.28
2023-05-08T02:17:38.605Z,100189.78
2023-05-08T02:20:09.061Z,100188.56
2023-05-08T02:22:37.002Z,100201.22
2023-05-08T02:25:04.313Z,100200.47
2023-05-08T02:27:32.003Z,100193.34
2023-05-08T02:29:59.222Z,100197.09
2023-05-08T02:32:27.982Z,100196.47
2023-05-08T02:35:03.223Z,100202.84
2023-05-08T02:37:33.048Z,100203.59
2023-05-08T02:40:01.355Z,100203.13
2023-05-08T02:42:27.820Z,100203.97
2023-05-08T02:44:54.362Z,100216.81
2023-05-08T02:47:26.019Z,100210.31
2023-05-08T02:49:57.127Z,100205.56
2023-05-08T02:52:28.613Z,100202.91
2023-05-08T02:55:00.190Z,100204.69
2023-05-08T02:57:37.445Z,100200.69
2023-05-08T03:00:12.236Z,100193.13
2023-05-08T03:02:41.402Z,100197.13
2023-05-08T03:05:15.415Z,100199.38
2023-05-08T03:07:43.642Z,100199.22
2023-05-08T03:10:13.653Z,100195.47
2023-05-08T03:12:44.618Z,100196.03
2023-05-08T03:15:17.989Z,100196.56
2023-05-08T03:17:46.205Z,100190.19
2023-05-08T03:20:16.947Z,100191.59
2023-05-08T03:22:46.724Z,100186.84
2023-05-08T03:25:17.754Z,100193.72
2023-05-08T03:27:45.477Z,100192.44
2023-05-08T03:30:13.333Z,100194.59
2023-05-08T03:32:41.198Z,100194.72
2023-05-08T03:35:09.710Z,100192.44
2023-05-08T03:37:38.373Z,100200.59
2023-05-08T03:40:07.182Z,100199.41
2023-05-08T03:42:36.018Z,100193.06
2023-05-08T03:45:03.903Z,100190.56
2023-05-08T03:47:32.094Z,100172.72
2023-05-08T03:50:00.246Z,100180.88
2023-05-08T03:52:26.806Z,100185.25
2023-05-08T03:54:53.457Z,100188.34
2023-05-08T03:57:20.246Z,100191.09
2023-05-08T03:59:54.506Z,100186.25
2023-05-08T04:02:28.783Z,100188.50
2023-05-08T04:05:01.836Z,100186.88
2023-05-08T04:07:35.819Z,100200.50
2023-05-08T04:10:09.249Z,100198.13
2023-05-08T04:12:40.552Z,100201.22
2023-05-08T04:15:13.891Z,100196.47
2023-05-08T04:17:43.721Z,100195.72
2023-05-08T04:20:15.037Z,100210.75
2023-05-08T04:22:43.251Z,100203.72
2023-05-08T04:25:12.571Z,100201.84
2023-05-08T04:27:39.370Z,100204.75
2023-05-08T04:30:07.705Z,100199.22
2023-05-08T04:32:38.370Z,100207.94
2023-05-08T04:35:07.995Z,100212.28
2023-05-08T04:37:34.806Z,100211.78
2023-05-08T04:40:24.924Z,100204.47
2023-05-08T04:42:51.720Z,100215.91
2023-05-08T04:45:18.590Z,100211.91
2023-05-08T04:47:46.912Z,100215.53
2023-05-08T04:50:13.589Z,100214.88
2023-05-08T04:52:40.248Z,100210.09
2023-05-08T04:55:08.296Z,100205.59
2023-05-08T04:57:34.873Z,100212.53
2023-05-08T05:00:01.477Z,100213.81
2023-05-08T05:02:28.212Z,100211.16
2023-05-08T05:04:56.240Z,100205.78
2023-05-08T05:07:22.787Z,100213.97
2023-05-08T05:09:49.504Z,100217.06
2023-05-08T05:12:16.066Z,100227.53
2023-05-08T05:14:42.633Z,100224.75
2023-05-08T05:17:09.244Z,100226.19
2023-05-08T05:19:35.811Z,100224.59
2023-05-08T05:22:03.686Z,100230.19
2023-05-08T05:24:30.252Z,100233.25
2023-05-08T05:26:56.913Z,100235.31
2023-05-08T05:29:23.691Z,100229.53
2023-05-08T05:31:50.214Z,100234.88
2023-05-08T05:34:16.754Z,100233.50
2023-05-08T05:36:43.483Z,100240.53
2023-05-08T05:39:11.403Z,100235.66
2023-05-08T05:41:37.918Z,100236.13
2023-05-08T05:44:04.798Z,100238.22
2023-05-08T05:46:31.363Z,100242.09
2023-05-08T05:48:59.482Z,100244.06
2023-05-08T05:51:26.245Z,100248.53
2023-05-08T05:53:52.840Z,100247.97
2023-05-08T05:56:20.860Z,100251.66
2023-05-08T05:58:47.398Z,100250.72
2023-05-08T06:01:14.285Z,100243.47
2023-05-08T06:03:40.961Z,100241.94
2023-05-08T06:06:08.119Z,100252.50
2023-05-08T06:08:34.929Z,100249.91
2023-05-08T06:11:01.685Z,100260.22
2023-05-08T06:13:30.065Z,100248.03
2023-05-08T06:15:56.757Z,100256.91
2023-05-08T06:18:23.646Z,100248.78
2023-05-08T06:20:56.999Z,100248.09
2023-05-08T06:23:23.662Z,100248.41
2023-05-08T06:25:50.402Z,100253.06
2023-05-08T06:28:17.673Z,100256.94
2023-05-08T06:30:45.782Z,100251.91
2023-05-08T06:33:12.409Z,100252.81
2023-05-08T06:35:38.986Z,100252.41
2023-05-08T06:38:05.751Z,100257.47
2023-05-08T06:40:32.457Z,100251.34
2023-05-08T06:42:59.073Z,100253.97
2023-05-08T06:45:25.739Z,100242.16
2023-05-08T06:47:53.784Z,100239.66
2023-05-08T06:50:20.606Z,100240.31
2023-05-08T06:52:47.161Z,100238.97
2023-05-08T06:55:13.943Z,100241.16
2023-05-08T06:57:40.669Z,100237.53
2023-05-08T07:00:08.656Z,100252.09
2023-05-08T07:02:35.356Z,100252.34
2023-05-08T07:05:03.778Z,100244.41
2023-05-08T07:07:30.392Z,100247.75
2023-05-08T07:09:56.916Z,100251.09
2023-05-08T07:12:23.704Z,100250.09
2023-05-08T07:14:50.290Z,100254.91
2023-05-08T07:17:16.894Z,100257.00
2023-05-08T07:19:43.512Z,100252.38
2023-05-08T07:22:11.491Z,100260.47
2023-05-08T07:24:38.204Z,100265.88
2023-05-08T07:27:04.832Z,100263.47
2023-05-08T07:29:31.406Z,100273.91
2023-05-08T07:31:58.126Z,100270.22
2023-05-08T07:34:24.832Z,100270.50
2023-05-08T07:36:51.375Z,100276.13
2023-05-08T07:39:19.442Z,100279.13
2023-05-08T07:41:48.415Z,100274.34
2023-05-08T07:44:16.264Z,100279.19
2023-05-08T07:46:42.906Z,100278.44
2023-05-08T07:49:09.869Z,100279.06
2023-05-08T07:51:36.433Z,100282.72
2023-05-08T07:54:03.008Z,100290.91
2023-05-08T07:56:31.022Z,100298.56
2023-05-08T07:58:57.768Z,100283.75
2023-05-08T08:01:24.371Z,100284.78
2023-05-08T08:03:51.192Z,100286.38
2023-05-08T08:06:17.865Z,100286.34
2023-05-08T08:08:44.434Z,100293.13
2023-05-08T08:11:11.039Z,100284.47
2023-05-08T08:13:38.978Z,100284.25
2023-05-08T08:16:06.459Z,100284.28
2023-05-08T08:18:34.529Z,100287.75
2023-05-08T08:21:01.081Z,100293.34
2023-05-08T08:23:27.685Z,100297.69
2023-05-08T08:25:54.235Z,100292.63
2023-05-08T08:28:20.845Z,100299.56
2023-05-08T08:30:48.811Z,100292.22
2023-05-08T08:33:17.505Z,100286.97
2023-05-08T08:35:45.484Z,100284.53
2023-05-08T08:38:12.441Z,100279.34
2023-05-08T08:40:39.784Z,100284.97
2023-05-08T08:43:06.417Z,100285.56
2023-05-08T08:45:33.258Z,100282.22
2023-05-08T08:48:03.247Z,100281.16
2023-05-08T08:50:31.760Z,100286.09
2023-05-08T08:53:04.455Z,100288.53
2023-05-08T08:55:32.527Z,100284.53
2023-05-08T08:58:14.468Z,100287.34
2023-05-08T09:00:42.053Z,100286.44
2023-05-08T09:03:10.456Z,100288.72
2023-05-08T09:05:37.552Z,100290.44
2023-05-08T09:08:05.589Z,100283.06
2023-05-08T09:10:32.830Z,100291.19
2023-05-08T09:12:59.444Z,100289.53
2023-05-08T09:15:26.114Z,100291.44
2023-05-08T09:17:52.821Z,100292.50
2023-05-08T09:20:21.432Z,100292.09
2023-05-08T09:22:49.204Z,100290.03
2023-05-08T09:25:15.947Z,100295.31
2023-05-08T09:27:42.712Z,100294.28
2023-05-08T09:30:13.033Z,100287.44
2023-05-08T09:32:41.091Z,100296.38
2023-05-08T09:35:09.902Z,100300.00
2023-05-08T09:37:40.395Z,100304.88
2023-05-08T09:40:18.752Z,100299.03
2023-05-08T09:42:45.823Z,100297.47
2023-05-08T09:45:27.282Z,100303.22
2023-05-08T09:47:54.012Z,100295.75
2023-05-08T09:50:20.713Z,100302.16
2023-05-08T09:52:49.826Z,100301.66
2023-05-08T09:55:16.889Z,100306.53
2023-05-08T09:57:53.371Z,100304.59
2023-05-08T10:00:20.861Z,100297.31
2023-05-08T10:02:55.647Z,100304.88
2023-05-08T10:05:24.612Z,100304.84
2023-05-08T10:07:52.682Z,100298.13
2023-05-08T10:10:23.605Z,100294.97
2023-05-08T10:12:51.821Z,100285.22
2023-05-08T10:15:18.539Z,100297.13
2023-05-08T10:17:54.212Z,100284.34
2023-05-08T10:20:21.738Z,100281.72
2023-05-08T10:22:49.317Z,100290.19
2023-05-08T10:25:22.287Z,100285.03
2023-05-08T10:27:59.492Z,100282.34
2023-05-08T10:30:26.830Z,100273.84
2023-05-08T10:32:54.589Z,100270.22
2023-05-08T10:35:21.941Z,100275.44
2023-05-08T10:37:50.029Z,100269.66
2023-05-08T10:40:18.455Z,100264.75
2023-05-08T10:42:45.516Z,100260.66
2023-05-08T10:45:12.782Z,100255.94
2023-05-08T10:47:53.413Z,100261.06
2023-05-08T10:50:34.810Z,100257.19
2023-05-08T10:53:06.844Z,100257.13
2023-05-08T10:55:37.090Z,100257.00
2023-05-08T10:58:12.008Z,100257.34
2023-05-08T11:01:11.910Z,100263.03
2023-05-08T11:03:40.501Z,100262.91
2023-05-08T11:06:07.218Z,100254.28
2023-05-08T11:08:44.188Z,100259.41
2023-05-08T11:11:17.590Z,100250.53
2023-05-08T11:13:49.562Z,100247.63
2023-05-08T11:16:16.306Z,100252.13
2023-05-08T11:19:16.561Z,100238.44
2023-05-08T11:22:13.392Z,100237.53
2023-05-08T11:24:46.751Z,100238.66
2023-05-08T11:27:14.764Z,100232.81
2023-05-08T11:29:41.457Z,100236.41
2023-05-08T11:32:08.233Z,100233.25
2023-05-08T11:34:47.645Z,100236.69
2023-05-08T11:37:18.348Z,100239.72
2023-05-08T11:39:44.936Z,100237.88
2023-05-08T11:42:34.798Z,100232.38
2023-05-08T11:45:06.380Z,100229.31
2023-05-08T11:47:39.201Z,100234.19
2023-05-08T11:50:07.852Z,100234.03
2023-05-08T11:52:35.868Z,100237.69
2023-05-08T11:55:04.690Z,100235.47
2023-05-08T11:57:31.770Z,100237.41
2023-05-08T12:00:04.402Z,100229.03
2023-05-08T12:02:38.675Z,100231.31
2023-05-08T12:05:07.211Z,100231.81
2023-05-08T12:07:33.871Z,100227.84
2023-05-08T12:10:01.553Z,100231.34
2023-05-08T12:12:37.822Z,100231.97
2023-05-08T12:15:10.473Z,100233.66
2023-05-08T12:17:37.202Z,100236.91
2023-05-08T12:20:11.211Z,100226.69
2023-05-08T12:22:38.922Z,100232.88
2023-05-08T12:25:07.750Z,100227.66
2023-05-08T12:27:34.404Z,100236.72
2023-05-08T12:30:01.033Z,100237.66
2023-05-08T12:32:29.848Z,100237.34
2023-05-08T12:34:57.118Z,100232.34
2023-05-08T12:37:24.401Z,100231.81
2023-05-08T12:39:51.001Z,100224.50
2023-05-08T12:42:17.642Z,100230.09
2023-05-08T12:44:50.518Z,100222.50
2023-05-08T12:47:18.971Z,100221.44
2023-05-08T12:49:47.851Z,100221.09
2023-05-08T12:52:15.270Z,100215.81
2023-05-08T12:54:48.043Z,100214.09
2023-05-08T12:57:17.458Z,100217.94
2023-05-08T12:59:45.020Z,100211.91
2023-05-08T13:02:13.967Z,100215.13
2023-05-08T13:04:40.786Z,100204.56
2023-05-08T13:07:08.892Z,100205.09
2023-05-08T13:09:35.483Z,100204.41
2023-05-08T13:12:02.213Z,100207.66
2023-05-08T13:14:28.860Z,100210.25
2023-05-08T13:16:55.977Z,100201.06
2023-05-08T13:19:22.729Z,100200.41
2023-05-08T13:21:49.324Z,100199.59
2023-05-08T13:24:17.344Z,100195.06
2023-05-08T13:26:43.940Z,100188.19
2023-05-08T13:29:11.676Z,100188.06
2023-05-08T13:31:38.347Z,100189.78
2023-05-08T13:34:04.984Z,100186.56
2023-05-08T13:36:31.600Z,100188.88
2023-05-08T13:38:58.066Z,100188.69
2023-05-08T13:41:26.306Z,100181.28
2023-05-08T13:43:52.933Z,100182.31
2023-05-08T13:46:19.581Z,100196.69
2023-05-08T13:48:46.147Z,100183.81
2023-05-08T13:51:12.876Z,100178.03
2023-05-08T13:53:39.490Z,100181.69
2023-05-08T13:56:06.482Z,100167.44
2023-05-08T13:58:34.473Z,100169.66
2023-05-08T14:01:10.437Z,100169.16
2023-05-08T14:03:44.623Z,100175.09
2023-05-08T14:06:11.278Z,100169.34
2023-05-08T14:08:45.224Z,100173.91
2023-05-08T14:11:13.841Z,100170.88
2023-05-08T14:13:44.932Z,100174.06
2023-05-08T14:16:11.555Z,100165.94
2023-05-08T14:18:38.222Z,100168.78
2023-05-08T14:21:05.057Z,100163.03
2023-05-08T14:23:31.706Z,100167.31
2023-05-08T14:25:58.457Z,100167.91
2023-05-08T14:28:25.039Z,100170.69
2023-05-08T14:30:53.034Z,100172.50
2023-05-08T14:33:19.652Z,100177.16
2023-05-08T14:35:46.354Z,100175.97
2023-05-08T14:38:12.920Z,100177.78
2023-05-08T14:40:39.529Z,100183.22
2023-05-08T14:43:06.158Z,100179.63
2023-05-08T14:45:32.769Z,100177.03
2023-05-08T14:48:00.973Z,100182.25
2023-05-08T14:50:27.741Z,100181.53
2023-05-08T14:52:54.438Z,100183.59
2023-05-08T14:55:21.994Z,100174.97
2023-05-08T14:57:48.944Z,100184.94
2023-05-08T15:00:17.333Z,100181.66
2023-05-08T15:02:44.779Z,100177.38
2023-05-08T15:08:01.391Z,100181.66
2023-05-08T15:10:28.029Z,100175.56
2023-05-08T15:12:54.814Z,100182.75
2023-05-08T15:15:21.616Z,100179.09
2023-05-08T15:17:48.456Z,100187.97
2023-05-08T15:20:16.378Z,100185.88
2023-05-08T15:22:43.009Z,100187.13
2023-05-08T15:25:09.927Z,100187.03
2023-05-08T15:27:36.492Z,100185.19
2023-05-08T15:30:03.651Z,100179.66
2023-05-08T15:32:30.315Z,100178.72
2023-05-08T15:34:57.067Z,100187.69
2023-05-08T15:37:25.013Z,100191.38
2023-05-08T15:39:51.573Z,100185.09
2023-05-08T15:42:18.220Z,100184.94
2023-05-08T15:47:14.496Z,100180.66
2023-05-08T15:49:41.133Z,100171.53
2023-05-08T15:52:07.686Z,100178.69
2023-05-08T15:54:35.602Z,100170.19
2023-05-08T15:57:02.195Z,100165.69
2023-05-08T15:59:28.745Z,100168.13
2023-05-08T16:01:55.417Z,100160.50
2023-05-08T16:04:22.059Z,100163.09
2023-05-08T16:06:48.766Z,100150.22
2023-05-08T16:09:15.406Z,100149.84
2023-05-08T16:11:43.867Z,100157.31
2023-05-08T16:14:10.455Z,100159.25
2023-05-08T16:16:38.226Z,100161.31
2023-05-08T16:19:04.832Z,100153.63
2023-05-08T16:21:31.433Z,100148.28
2023-05-08T16:23:57.984Z,100139.94
2023-05-08T16:26:24.547Z,100144.19
2023-05-08T16:28:52.717Z,100142.75
2023-05-08T16:31:19.309Z,100135.41
2023-05-08T16:33:46.063Z,100132.13
2023-05-08T16:36:12.819Z,100122.91
2023-05-08T16:38:39.399Z,100119.22
2023-05-08T16:41:07.316Z,100119.47
2023-05-08T16:43:33.949Z,100122.75
2023-05-08T16:46:01.977Z,100118.94
2023-05-08T16:48:28.595Z,100123.25
2023-05-08T16:50:55.160Z,100119.81
2023-05-08T16:53:21.786Z,100122.03
2023-05-08T16:55:48.415Z,100117.63
2023-05-08T16:58:15.008Z,100114.66
2023-05-08T17:00:41.606Z,100112.09
2023-05-08T17:03:09.687Z,100117.81
2023-05-08T17:05:37.099Z,100116.78
2023-05-08T17:08:03.792Z,100120.09
2023-05-08T17:10:30.664Z,100120.00
2023-05-08T17:12:57.325Z,100119.28
2023-05-08T17:15:23.922Z,100115.97
2023-05-08T17:17:50.502Z,100116.06
2023-05-08T17:20:18.820Z,100119.41
2023-05-08T17:22:45.472Z,100124.94
2023-05-08T17:25:12.058Z,100124.41
2023-05-08T17:27:44.913Z,100124.41
2023-05-08T17:32:39.121Z,100125.00
2023-05-08T17:35:06.768Z,100124.69
2023-05-08T17:37:34.811Z,100127.75
2023-05-08T17:40:01.421Z,100120.94
2023-05-08T17:42:27.967Z,100122.28
2023-05-08T17:44:54.544Z,100121.22
2023-05-08T17:47:21.163Z,100130.59
2023-05-08T17:49:47.800Z,100119.91
2023-05-08T17:52:14.373Z,100122.78
2023-05-08T17:54:42.308Z,100130.38
2023-05-08T17:57:08.860Z,100127.56
2023-05-08T17:59:35.513Z,100134.72
2023-05-08T18:02:02.081Z,100132.09
2023-05-08T18:04:28.643Z,100133.00
2023-05-08T18:06:55.195Z,100125.28
2023-05-08T18:09:21.734Z,100137.22
2023-05-08T18:11:49.800Z,100133.56
2023-05-08T18:14:16.360Z,100130.09
2023-05-08T18:16:42.946Z,100136.00
2023-05-08T18:19:09.549Z,100140.53
2023-05-08T18:21:36.139Z,100133.94
2023-05-08T18:24:02.701Z,100138.13
2023-05-08T18:26:29.327Z,100139.41
2023-05-08T18:28:57.300Z,100143.03
2023-05-08T18:31:23.885Z,100137.50
2023-05-08T18:33:50.491Z,100139.94
2023-05-08T18:36:17.094Z,100140.44
2023-05-08T18:38:43.655Z,100130.63
2023-05-08T18:41:10.334Z,100132.19
2023-05-08T18:43:36.984Z,100132.00
2023-05-08T18:46:12.080Z,100122.53
2023-05-08T18:48:39.013Z,100118.97
2023-05-08T18:51:05.432Z,100133.53
2023-05-08T18:53:33.070Z,100120.50
2023-05-08T18:56:02.245Z,100120.81
2023-05-08T18:58:28.800Z,100120.13
2023-05-08T19:00:55.522Z,100119.84
2023-05-08T19:03:23.596Z,100121.78
2023-05-08T19:05:50.476Z,100119.63
2023-05-08T19:08:17.143Z,100124.00
2023-05-08T19:10:43.757Z,100121.00
2023-05-08T19:13:10.413Z,100124.31
2023-05-08T19:15:37.188Z,100128.97
2023-05-08T19:18:04.262Z,100124.38
2023-05-08T19:20:32.982Z,100131.50
2023-05-08T19:22:59.563Z,100129.75
2023-05-08T19:25:26.291Z,100129.63
2023-05-08T19:27:52.827Z,100124.41
2023-05-08T19:30:19.504Z,100122.78
2023-05-08T19:32:46.053Z,100120.63
2023-05-08T19:35:12.967Z,100115.09
2023-05-08T19:37:41.006Z,100122.69
2023-05-08T19:40:08.801Z,100112.97
2023-05-08T19:42:35.593Z,100113.84
2023-05-08T19:45:02.138Z,100117.00
2023-05-08T19:47:28.812Z,100117.88
2023-05-08T19:49:55.485Z,100114.56
2023-05-08T19:52:22.185Z,100116.00
2023-05-08T19:54:50.136Z,100120.66
2023-05-08T19:57:16.780Z,100112.69
2023-05-08T19:59:43.353Z,100124.28
2023-05-08T20:02:09.922Z,100114.44
2023-05-08T20:04:48.686Z,100122.81
2023-05-08T20:07:23.316Z,100121.94
2023-05-08T20:09:51.323Z,100123.84
2023-05-08T20:12:18.026Z,100113.84
2023-05-08T20:14:45.064Z,100118.50
2023-05-08T20:17:11.633Z,100116.44
2023-05-08T20:19:38.359Z,100116.56
2023-05-08T20:22:05.074Z,100114.09
2023-05-08T20:24:31.888Z,100125.72
2023-05-08T20:26:59.834Z,100125.28
2023-05-08T20:29:26.485Z,100118.19
2023-05-08T20:31:53.737Z,100111.94
2023-05-08T20:34:21.930Z,100110.66
2023-05-08T20:36:49.532Z,100123.25
2023-05-08T20:39:16.232Z,100119.47
2023-05-08T20:41:42.853Z,100115.25
2023-05-08T20:44:10.817Z,100118.47
2023-05-08T20:46:37.401Z,100112.50
2023-05-08T20:49:03.987Z,100110.78
2023-05-08T20:51:30.562Z,100102.84
2023-05-08T20:53:57.146Z,100102.34
2023-05-08T20:56:23.720Z,100098.28
2023-05-08T20:58:50.368Z,100094.66
2023-05-08T21:01:20.688Z,100092.34
2023-05-08T21:03:47.708Z,100099.59
2023-05-08T21:06:14.329Z,100093.06
2023-05-08T21:08:40.891Z,100092.59
2023-05-08T21:11:07.533Z,100096.63
2023-05-08T21:13:34.142Z,100098.75
2023-05-08T21:16:01.048Z,100094.47
2023-05-08T21:18:29.084Z,100080.97
2023-05-08T21:20:55.644Z,100084.59
2023-05-08T21:23:22.471Z,100070.06
2023-05-08T21:25:49.545Z,100078.78
2023-05-08T21:28:17.281Z,100076.44
2023-05-08T21:30:43.958Z,100077.88
2023-05-08T21:33:10.746Z,100082.97
2023-05-08T21:35:38.664Z,100084.13
2023-05-08T21:38:05.239Z,100082.34
2023-05-08T21:40:31.849Z,100084.41
2023-05-08T21:42:58.424Z,100079.56
2023-05-08T21:45:24.963Z,100077.41
2023-05-08T21:47:51.768Z,100075.19
2023-05-08T21:50:18.349Z,100074.06
2023-05-08T21:52:46.295Z,100072.34
2023-05-08T21:55:13.145Z,100068.44
2023-05-08T21:57:40.033Z,100064.97
2023-05-08T22:00:08.194Z,100062.94
2023-05-08T22:02:35.137Z,100059.72
2023-05-08T22:05:01.664Z,100057.81
2023-05-08T22:07:28.460Z,100062.88
2023-05-08T22:09:56.393Z,100063.31
2023-05-08T22:12:22.938Z,100063.44
2023-05-08T22:14:49.521Z,100055.75
2023-05-08T22:17:16.390Z,100062.13
2023-05-08T22:19:42.927Z,100053.28
2023-05-08T22:22:09.462Z,100054.16
2023-05-08T22:24:36.283Z,100047.22
2023-05-08T22:27:04.334Z,100044.56
2023-05-08T22:29:30.870Z,100042.25
2023-05-08T22:31:57.451Z,100040.06
2023-05-08T22:34:24.192Z,100037.78
2023-05-08T22:36:50.780Z,100033.97
2023-05-08T22:39:17.618Z,100037.31
2023-05-08T22:41:44.248Z,100033.53
2023-05-08T22:44:12.354Z,100025.38
2023-05-08T22:46:39.118Z,100029.00
2023-05-08T22:49:06.016Z,100032.38
2023-05-08T22:51:32.617Z,100029.75
2023-05-08T22:53:59.375Z,100021.94
2023-05-08T22:56:26.092Z,100027.00
2023-05-08T22:58:52.618Z,100024.06
2023-05-08T23:01:20.689Z,100024.53
2023-05-08T23:03:47.437Z,100020.44
2023-05-08T23:06:14.031Z,100022.91
2023-05-08T23:08:40.577Z,100017.84
2023-05-08T23:11:07.160Z,100019.94
2023-05-08T23:13:33.759Z,100005.44
2023-05-08T23:16:00.769Z,100006.88
2023-05-08T23:18:28.747Z,100001.94
2023-05-08T23:20:55.597Z,100000.03
2023-05-08T23:23:22.178Z,99992.06
2023-05-08T23:25:48.847Z,99986.00
2023-05-08T23:28:15.380Z,99988.28
2023-05-08T23:30:41.933Z,99979.72
2023-05-08T23:33:08.519Z,99980.94
2023-05-08T23:35:36.332Z,99973.09
2023-05-08T23:38:02.942Z,99972.88
2023-05-08T23:40:29.490Z,99967.34
2023-05-08T23:42:56.129Z,99964.63
2023-05-08T23:45:23.143Z,99964.59
2023-05-08T23:47:49.702Z,99963.25
2023-05-08T23:50:16.518Z,99961.34
2023-05-08T23:52:44.446Z,99958.16
2023-05-08T23:55:11.444Z,99955.28
2023-05-08T23:57:38.166Z,99950.78
